Bacup, United Kingdom
Current Conditions -  °F | °C
As of 12:20 AM on Thursday 29 Jan 2015 (Local Time) from EGCC Reporting Station
Broken Clouds Broken Clouds  
Wind Chill: -4°   Ceiling: 2800
Heat Index:   Visibility: 6mi
Dew Point:   Wind: 21mph
Humidity: 87%   Direction: 260°W
Pressure: 29.29"   Gusts: NA
Location:  53.7°N, 2.2°W
Report Text: EGCC 290020Z 26018KT 9999 SCT023 BKN028 02/M00 Q0992
Loading
Personal Weather Stations






























Interactive Weather Map New forecast layout! Learn more

10-Day Weather Forecast

Advertisements
Track Severe Weather on mobile